Time;durP1;ratioP1;P1;durP2;ratioP2;P2;SDS_P1;SDS_P2;PMS_P1;PMS_P2;Temp;Humidity;BMP_temperature;BMP_pressure;BME280_temperature;BME280_humidity;BME280_pressure;Samples;Min_cycle;Max_cycle;Signal;HPM_P1;HPM_P2
2021/03/09 00:00:20;;;;;;;2.92;1.05;;;1.70;54.20;;;;;;4998947;28;20021;-65
2021/03/09 00:02:46;;;;;;;1.75;1.00;;;1.70;54.20;;;;;;5035545;28;20025;-66
2021/03/09 00:05:12;;;;;;;2.50;1.10;;;1.70;54.30;;;;;;5000853;28;20112;-66
2021/03/09 00:07:37;;;;;;;3.08;1.15;;;1.70;54.30;;;;;;5019427;28;20061;-67
2021/03/09 00:10:04;;;;;;;2.28;1.02;;;1.70;54.40;;;;;;5018370;28;20072;-66
2021/03/09 00:12:30;;;;;;;3.58;1.10;;;1.70;54.10;;;;;;5034027;28;20034;-66
2021/03/09 00:14:56;;;;;;;3.65;1.40;;;1.70;53.80;;;;;;5023095;28;20434;-67
2021/03/09 00:17:22;;;;;;;1.83;1.05;;;1.70;54.20;;;;;;5020165;28;20479;-66
2021/03/09 00:19:48;;;;;;;2.53;1.13;;;1.70;53.60;;;;;;5035544;28;20117;-65
2021/03/09 00:22:14;;;;;;;1.80;1.00;;;1.70;54.10;;;;;;5019273;28;20104;-67
2021/03/09 00:24:39;;;;;;;7.72;1.35;;;1.60;53.90;;;;;;5030377;28;20065;-67
2021/03/09 00:27:09;;;;;;;4.45;1.27;;;1.60;54.00;;;;;;5003000;28;20037;-65
2021/03/09 00:29:36;;;;;;;3.80;1.20;;;1.70;53.90;;;;;;5017867;28;20052;-66
2021/03/09 00:32:01;;;;;;;4.47;1.10;;;1.60;54.00;;;;;;5018071;28;20030;-66
2021/03/09 00:34:27;;;;;;;3.33;1.25;;;1.70;53.60;;;;;;5051096;28;20480;-66
2021/03/09 00:36:52;;;;;;;2.85;1.20;;;1.60;54.00;;;;;;5016062;28;20041;-66
2021/03/09 00:39:18;;;;;;;3.85;1.30;;;1.60;54.40;;;;;;5025369;28;20033;-66
2021/03/09 00:41:44;;;;;;;2.97;1.23;;;1.60;54.30;;;;;;4998347;28;20101;-67
2021/03/09 00:44:09;;;;;;;2.13;1.00;;;1.70;53.90;;;;;;5017084;28;20429;-69
2021/03/09 00:46:35;;;;;;;2.75;1.02;;;1.70;54.00;;;;;;5021799;28;20064;-68
2021/03/09 00:49:00;;;;;;;2.53;1.05;;;1.70;54.30;;;;;;5001073;28;20083;-67
2021/03/09 00:51:26;;;;;;;3.97;1.20;;;1.70;53.20;;;;;;5014529;28;20463;-68
2021/03/09 00:53:52;;;;;;;2.72;1.05;;;1.70;53.70;;;;;;5016826;28;20068;-66
2021/03/09 00:56:17;;;;;;;4.20;1.08;;;1.70;53.60;;;;;;5016658;28;20049;-66
2021/03/09 00:58:43;;;;;;;4.25;1.27;;;1.70;53.90;;;;;;5023250;28;20025;-69
2021/03/09 01:01:08;;;;;;;3.92;1.10;;;1.70;53.80;;;;;;5050828;28;20041;-67
2021/03/09 01:03:34;;;;;;;4.07;1.15;;;1.70;53.60;;;;;;5036812;28;20053;-68
2021/03/09 01:06:00;;;;;;;1.50;0.80;;;1.70;54.20;;;;;;5010792;28;20202;-66
2021/03/09 01:08:25;;;;;;;6.10;1.30;;;1.70;54.10;;;;;;5024602;28;20457;-66
2021/03/09 01:10:51;;;;;;;1.90;1.10;;;1.70;54.10;;;;;;5021768;28;20039;-66
2021/03/09 01:13:16;;;;;;;2.95;1.20;;;1.70;53.90;;;;;;5037095;28;20083;-67
2021/03/09 01:15:42;;;;;;;2.85;1.20;;;1.70;54.00;;;;;;5020744;28;20151;-68
2021/03/09 01:18:08;;;;;;;1.83;1.10;;;1.70;55.00;;;;;;5020901;28;20169;-66
2021/03/09 01:20:33;;;;;;;2.75;0.98;;;1.70;55.00;;;;;;5017888;28;20079;-66
2021/03/09 01:22:59;;;;;;;2.90;1.30;;;1.60;54.50;;;;;;5017098;28;20088;-68
2021/03/09 01:25:25;;;;;;;3.00;1.10;;;1.60;54.80;;;;;;5032120;28;20119;-67
2021/03/09 01:27:51;;;;;;;1.95;1.00;;;1.60;54.90;;;;;;4999668;28;20098;-66
2021/03/09 01:30:18;;;;;;;2.58;1.30;;;1.60;54.50;;;;;;5017556;28;20072;-66
2021/03/09 01:32:44;;;;;;;5.03;0.90;;;1.60;54.70;;;;;;5021452;28;20045;-68
2021/03/09 01:35:10;;;;;;;2.55;1.20;;;1.60;54.60;;;;;;5024068;28;20071;-66
2021/03/09 01:37:36;;;;;;;2.67;1.10;;;1.60;54.60;;;;;;5022121;28;20041;-65
2021/03/09 01:40:04;;;;;;;4.53;1.30;;;1.60;54.80;;;;;;5022855;28;20021;-68
2021/03/09 01:42:30;;;;;;;1.80;1.08;;;1.60;54.90;;;;;;5027480;28;20065;-67
2021/03/09 01:44:56;;;;;;;4.95;1.40;;;1.60;54.50;;;;;;5004666;28;20065;-68
2021/03/09 01:47:22;;;;;;;2.88;1.00;;;1.50;54.60;;;;;;4982353;28;20446;-67
2021/03/09 01:49:47;;;;;;;2.85;1.27;;;1.50;54.90;;;;;;5015156;28;20034;-66
2021/03/09 01:52:13;;;;;;;3.53;1.30;;;1.50;55.40;;;;;;5021865;28;20494;-68
2021/03/09 01:54:39;;;;;;;2.22;0.98;;;1.50;55.50;;;;;;5016528;28;20442;-66
2021/03/09 01:57:07;;;;;;;3.20;1.20;;;1.50;55.50;;;;;;4993903;28;20109;-66
2021/03/09 01:59:33;;;;;;;5.10;1.27;;;1.40;55.90;;;;;;5036207;28;20026;-66
2021/03/09 02:02:00;;;;;;;2.83;1.08;;;1.40;56.00;;;;;;5022823;28;20128;-66
2021/03/09 02:04:26;;;;;;;1.92;1.02;;;1.40;56.20;;;;;;5031374;28;20574;-68
2021/03/09 02:06:52;;;;;;;2.03;1.00;;;1.40;56.60;;;;;;5023660;28;20128;-66
2021/03/09 02:09:19;;;;;;;2.72;1.30;;;1.40;56.60;;;;;;5020507;28;20025;-66
2021/03/09 02:12:15;;;;;;;2.33;1.10;;;1.40;56.40;;;;;;4998339;28;20439;-67
2021/03/09 02:15:15;;;;;;;4.88;1.10;;;1.40;56.90;;;;;;5025045;28;20034;-66
2021/03/09 02:17:54;;;;;;;3.28;1.40;;;1.40;57.10;;;;;;5017086;28;20056;-66
2021/03/09 02:20:56;;;;;;;4.28;1.42;;;1.30;57.00;;;;;;5030410;28;20053;-66
2021/03/09 02:23:40;;;;;;;3.63;1.20;;;1.30;56.90;;;;;;5016886;28;20278;-66
2021/03/09 02:26:43;;;;;;;2.97;1.30;;;1.30;57.60;;;;;;5013783;28;20138;-66
2021/03/09 02:29:28;;;;;;;2.83;1.35;;;1.30;57.60;;;;;;5022745;28;20033;-68
2021/03/09 02:31:56;;;;;;;3.20;1.50;;;1.30;57.80;;;;;;5022137;28;20083;-68
2021/03/09 02:34:35;;;;;;;3.03;1.35;;;1.40;58.30;;;;;;5022435;28;20050;-67
2021/03/09 02:37:08;;;;;;;2.80;1.35;;;1.30;58.10;;;;;;5022766;28;20484;-65
2021/03/09 02:39:35;;;;;;;4.63;1.58;;;1.40;58.00;;;;;;5021058;28;20025;-67
2021/03/09 02:42:03;;;;;;;5.53;1.90;;;1.30;58.80;;;;;;5025169;28;20072;-67
2021/03/09 02:44:33;;;;;;;4.20;1.38;;;1.40;58.80;;;;;;5024106;28;20029;-65
2021/03/09 02:46:59;;;;;;;4.03;1.45;;;1.40;59.30;;;;;;5038013;28;20103;-67
2021/03/09 02:49:27;;;;;;;10.18;1.73;;;1.40;58.50;;;;;;5044053;28;20026;-66
2021/03/09 02:51:53;;;;;;;4.35;1.55;;;1.40;58.70;;;;;;5019317;28;20501;-67
2021/03/09 02:54:21;;;;;;;3.22;1.60;;;1.40;59.00;;;;;;5003602;28;20512;-66
2021/03/09 02:56:47;;;;;;;2.28;1.42;;;1.40;59.40;;;;;;5017101;28;20042;-66
2021/03/09 02:59:15;;;;;;;4.75;1.42;;;1.40;59.50;;;;;;5035681;28;20025;-66
2021/03/09 03:01:47;;;;;;;2.70;1.23;;;1.40;59.50;;;;;;5024590;28;20034;-65
2021/03/09 03:04:19;;;;;;;4.32;1.50;;;1.40;60.40;;;;;;5038406;28;20013;-67
2021/03/09 03:06:46;;;;;;;3.88;1.55;;;1.40;59.80;;;;;;5039348;28;20079;-67
2021/03/09 03:09:15;;;;;;;2.55;1.35;;;1.40;60.80;;;;;;5015187;28;20029;-67
2021/03/09 03:11:41;;;;;;;4.22;1.67;;;1.40;60.50;;;;;;5015274;28;20034;-66
2021/03/09 03:14:08;;;;;;;4.43;1.67;;;1.50;60.30;;;;;;5021896;28;20441;-67
2021/03/09 03:16:37;;;;;;;4.07;1.85;;;1.40;60.90;;;;;;5018750;28;20025;-65
2021/03/09 03:19:06;;;;;;;3.33;1.48;;;1.40;61.30;;;;;;5002827;28;20029;-67
2021/03/09 03:21:35;;;;;;;3.28;1.60;;;1.40;60.90;;;;;;5020892;28;20025;-66
2021/03/09 03:24:03;;;;;;;4.80;1.70;;;1.40;61.50;;;;;;5011549;28;20405;-66
2021/03/09 03:26:30;;;;;;;4.97;1.60;;;1.40;60.90;;;;;;5020333;28;20046;-66
2021/03/09 03:28:57;;;;;;;5.05;1.65;;;1.40;60.70;;;;;;5014011;28;20378;-66
2021/03/09 03:31:23;;;;;;;4.38;1.50;;;1.40;61.30;;;;;;5018209;28;20521;-66
2021/03/09 03:33:49;;;;;;;3.03;1.33;;;1.40;60.70;;;;;;5040924;28;20037;-67
2021/03/09 03:36:16;;;;;;;4.72;1.75;;;1.40;61.40;;;;;;5022057;28;20029;-67
2021/03/09 03:38:42;;;;;;;3.65;1.50;;;1.40;61.50;;;;;;4997273;28;20029;-66
2021/03/09 03:41:09;;;;;;;5.90;1.83;;;1.40;61.60;;;;;;5006074;28;20103;-66
2021/03/09 03:43:36;;;;;;;3.50;1.42;;;1.40;61.80;;;;;;5037994;28;20124;-67
2021/03/09 03:46:02;;;;;;;3.58;1.90;;;1.40;62.10;;;;;;5013951;28;20538;-66
2021/03/09 03:48:33;;;;;;;3.40;1.67;;;1.40;61.70;;;;;;5030330;28;20545;-66
2021/03/09 03:51:03;;;;;;;3.60;1.63;;;1.40;61.50;;;;;;4999880;28;20431;-66
2021/03/09 03:54:12;;;;;;;4.33;1.90;;;1.40;61.60;;;;;;5030332;28;20556;-65
2021/03/09 03:57:12;;;;;;;3.80;1.50;;;1.40;62.30;;;;;;5011182;28;20525;-66
2021/03/09 03:59:42;;;;;;;5.13;1.50;;;1.40;62.20;;;;;;5019038;28;20064;-66
2021/03/09 04:02:10;;;;;;;7.85;2.00;;;1.30;63.00;;;;;;5003135;28;20025;-66
2021/03/09 04:04:40;;;;;;;4.22;1.80;;;1.30;63.30;;;;;;5004499;28;20037;-67
2021/03/09 04:07:07;;;;;;;4.07;1.63;;;1.30;63.80;;;;;;5002045;28;20517;-66
2021/03/09 04:09:34;;;;;;;5.00;1.83;;;1.20;65.20;;;;;;5028985;28;20127;-66
2021/03/09 04:12:01;;;;;;;3.70;1.67;;;1.20;65.30;;;;;;4986854;28;20069;-66
2021/03/09 04:14:30;;;;;;;6.38;1.80;;;1.20;65.90;;;;;;5036628;28;20241;-66
2021/03/09 04:16:58;;;;;;;3.40;1.73;;;1.10;66.70;;;;;;5033504;28;20025;-65
2021/03/09 04:19:25;;;;;;;6.47;1.92;;;1.00;67.40;;;;;;5019633;28;20037;-66
2021/03/09 04:21:51;;;;;;;6.18;2.03;;;1.00;68.70;;;;;;5003279;28;20060;-67
2021/03/09 04:24:19;;;;;;;4.05;2.08;;;0.90;69.30;;;;;;5025532;28;20110;-67
2021/03/09 04:26:45;;;;;;;5.03;1.80;;;1.00;70.90;;;;;;5027187;28;20036;-67
2021/03/09 04:29:12;;;;;;;4.60;2.10;;;0.90;71.90;;;;;;4997985;28;20026;-66
2021/03/09 04:31:39;;;;;;;6.75;2.45;;;0.70;72.30;;;;;;5017830;28;20033;-67
2021/03/09 04:34:06;;;;;;;4.47;2.28;;;0.70;74.00;;;;;;5024494;28;20427;-66
2021/03/09 04:36:33;;;;;;;4.78;2.25;;;0.70;73.90;;;;;;5029476;28;20100;-66
2021/03/09 04:39:00;;;;;;;4.82;2.28;;;0.60;75.10;;;;;;5039218;28;20029;-66
2021/03/09 04:41:25;;;;;;;7.68;2.38;;;0.60;75.60;;;;;;4999552;28;20437;-66
2021/03/09 04:43:52;;;;;;;5.85;2.47;;;0.60;75.80;;;;;;5004512;28;20030;-68
2021/03/09 04:46:20;;;;;;;4.43;2.40;;;0.50;77.60;;;;;;5009641;28;20538;-67
2021/03/09 04:48:46;;;;;;;6.03;2.20;;;0.50;77.00;;;;;;5015485;28;20442;-68
2021/03/09 04:51:14;;;;;;;6.68;2.47;;;0.40;77.80;;;;;;5017464;28;20117;-67
2021/03/09 04:53:41;;;;;;;12.27;2.72;;;0.40;78.00;;;;;;5025078;28;20030;-67
2021/03/09 04:56:07;;;;;;;6.15;2.50;;;0.40;78.60;;;;;;5032916;28;20033;-66
2021/03/09 04:58:33;;;;;;;5.05;2.60;;;0.40;79.00;;;;;;5021141;28;20153;-66
2021/03/09 05:00:59;;;;;;;6.47;2.60;;;0.40;79.60;;;;;;4992724;28;20026;-66
2021/03/09 05:03:25;;;;;;;4.82;2.33;;;0.30;80.60;;;;;;5035547;28;20022;-67
2021/03/09 05:05:51;;;;;;;6.25;3.05;;;0.30;80.80;;;;;;5023863;28;20057;-66
2021/03/09 05:08:17;;;;;;;5.45;3.17;;;0.20;82.00;;;;;;5005780;28;20179;-68
2021/03/09 05:10:43;;;;;;;6.25;3.10;;;0.10;82.20;;;;;;4993363;28;20117;-67
2021/03/09 05:13:08;;;;;;;7.95;3.50;;;0.20;83.00;;;;;;5004248;28;20026;-66
2021/03/09 05:15:34;;;;;;;8.23;3.15;;;0.10;83.90;;;;;;5016074;28;20026;-66
2021/03/09 05:18:00;;;;;;;7.43;3.38;;;0.10;84.00;;;;;;5034454;28;20030;-66
2021/03/09 05:20:26;;;;;;;6.20;3.13;;;0.10;84.70;;;;;;4988210;28;20080;-67
2021/03/09 05:22:52;;;;;;;5.60;2.92;;;0.10;84.80;;;;;;5034735;28;20144;-65
2021/03/09 05:25:18;;;;;;;7.47;3.67;;;0.10;85.30;;;;;;5017201;28;20402;-66
2021/03/09 05:27:44;;;;;;;7.60;4.13;;;0.10;86.20;;;;;;5016806;28;20041;-66
2021/03/09 05:30:12;;;;;;;9.07;4.00;;;0.10;86.80;;;;;;5039941;28;20064;-66
2021/03/09 05:32:38;;;;;;;9.35;3.55;;;0.10;86.90;;;;;;5015402;28;20030;-66
2021/03/09 05:35:06;;;;;;;12.80;5.13;;;0.10;87.70;;;;;;5036854;28;20029;-66
2021/03/09 05:37:32;;;;;;;8.50;4.32;;;0.10;87.90;;;;;;5022615;28;20309;-66
2021/03/09 05:39:57;;;;;;;10.73;4.22;;;0.10;88.40;;;;;;4996920;28;20026;-66
2021/03/09 05:42:23;;;;;;;9.32;4.45;;;0.10;88.20;;;;;;5005273;28;20078;-66
2021/03/09 05:44:49;;;;;;;7.78;4.80;;;0.00;88.90;;;;;;5022236;28;20092;-67
2021/03/09 05:47:15;;;;;;;8.70;4.97;;;0.10;89.00;;;;;;5022090;28;20033;-65
2021/03/09 05:49:41;;;;;;;10.93;5.53;;;0.10;89.50;;;;;;5017279;28;20045;-66
2021/03/09 05:52:08;;;;;;;12.65;5.63;;;0.00;89.70;;;;;;5026817;28;20029;-67
2021/03/09 05:54:34;;;;;;;9.13;5.25;;;0.00;90.00;;;;;;5000635;28;20312;-67
2021/03/09 05:56:59;;;;;;;11.07;5.63;;;0.00;90.10;;;;;;5019733;28;20509;-66
2021/03/09 05:59:25;;;;;;;10.07;4.88;;;0.00;90.20;;;;;;4995752;28;20029;-67
2021/03/09 06:01:51;;;;;;;9.10;5.20;;;0.00;90.50;;;;;;5023423;28;20030;-67
2021/03/09 06:04:17;;;;;;;10.77;5.68;;;0.00;90.70;;;;;;5023181;28;20094;-66
2021/03/09 06:06:43;;;;;;;11.25;6.03;;;0.00;90.90;;;;;;5021706;28;20025;-67
2021/03/09 06:09:32;;;;;;;11.82;6.05;;;-3276.70;91.10;;;;;;5035988;28;20120;-66
2021/03/09 06:12:12;;;;;;;10.15;5.22;;;-3276.70;91.10;;;;;;5018429;28;20064;-66
2021/03/09 06:14:41;;;;;;;10.65;5.20;;;-3276.70;91.30;;;;;;5022088;28;20040;-66
2021/03/09 06:17:10;;;;;;;10.30;5.40;;;-3276.70;91.40;;;;;;5030284;28;20168;-66
2021/03/09 06:19:47;;;;;;;12.20;6.18;;;-3276.70;91.50;;;;;;5026805;28;20026;-65
2021/03/09 06:22:15;;;;;;;11.02;5.50;;;-3276.70;91.70;;;;;;5001167;28;20120;-66
2021/03/09 06:24:41;;;;;;;10.25;5.53;;;0.00;91.90;;;;;;5023317;28;20038;-68
2021/03/09 06:27:28;;;;;;;12.13;5.53;;;0.00;91.80;;;;;;5027164;28;20029;-65
2021/03/09 06:29:55;;;;;;;10.45;6.05;;;0.00;91.90;;;;;;5021954;28;20034;-66
2021/03/09 06:32:22;;;;;;;10.95;5.72;;;0.00;92.00;;;;;;5007815;28;20498;-66
2021/03/09 06:34:48;;;;;;;13.07;6.13;;;0.00;92.10;;;;;;5027455;28;20042;-65
2021/03/09 06:37:25;;;;;;;10.85;5.85;;;0.00;92.30;;;;;;5005514;28;20058;-66
2021/03/09 06:39:54;;;;;;;13.80;6.45;;;0.00;92.40;;;;;;5025977;28;20536;-66
2021/03/09 06:42:39;;;;;;;15.70;6.82;;;0.00;92.40;;;;;;5031738;28;20398;-65
2021/03/09 06:45:13;;;;;;;13.88;6.28;;;0.00;92.50;;;;;;5027437;28;20059;-66
2021/03/09 06:47:41;;;;;;;12.75;6.15;;;0.00;92.40;;;;;;5044308;28;20026;-67
2021/03/09 06:50:18;;;;;;;11.02;5.68;;;0.00;92.30;;;;;;5028133;28;20060;-65
2021/03/09 06:52:56;;;;;;;9.38;5.72;;;0.00;92.20;;;;;;5015630;28;20044;-65
2021/03/09 06:55:28;;;;;;;10.75;5.93;;;0.00;92.30;;;;;;5006727;28;20029;-65
2021/03/09 06:58:12;;;;;;;14.38;6.78;;;0.10;92.40;;;;;;5027386;28;20432;-66
2021/03/09 07:00:39;;;;;;;16.08;6.57;;;0.10;92.40;;;;;;5009180;28;20075;-65
2021/03/09 07:03:25;;;;;;;13.05;6.65;;;0.10;92.50;;;;;;4999582;28;20029;-66
2021/03/09 07:05:59;;;;;;;15.77;6.57;;;0.10;92.50;;;;;;5002106;28;20033;-65
2021/03/09 07:08:24;;;;;;;13.60;7.13;;;0.10;92.50;;;;;;5023904;28;20042;-66
2021/03/09 07:10:50;;;;;;;13.35;6.75;;;0.10;92.60;;;;;;5008923;28;20148;-65
2021/03/09 07:13:18;;;;;;;12.48;6.68;;;0.10;92.50;;;;;;5023270;28;20029;-66
2021/03/09 07:15:44;;;;;;;13.48;6.80;;;0.20;92.40;;;;;;5005470;28;20025;-66
2021/03/09 07:18:10;;;;;;;13.85;6.72;;;0.20;92.40;;;;;;5041461;28;20389;-67
2021/03/09 07:20:37;;;;;;;13.15;6.75;;;0.10;92.30;;;;;;5038492;28;20047;-65
2021/03/09 07:23:03;;;;;;;12.90;6.38;;;0.20;92.40;;;;;;5006800;28;20030;-66
2021/03/09 07:25:30;;;;;;;10.80;6.63;;;0.20;92.40;;;;;;5033264;28;20026;-66
2021/03/09 07:28:01;;;;;;;10.88;6.28;;;0.20;92.40;;;;;;5039416;28;20053;-66
2021/03/09 07:30:28;;;;;;;;;;;0.30;92.20;;;;;;5027841;28;20034;-65
2021/03/09 07:32:55;;;;;;;10.05;6.00;;;0.30;92.00;;;;;;5017544;28;20303;-66
2021/03/09 07:35:23;;;;;;;12.05;6.75;;;0.40;91.90;;;;;;5023933;28;20043;-65
2021/03/09 07:37:49;;;;;;;12.73;7.25;;;0.30;91.80;;;;;;4999724;28;20508;-65
2021/03/09 07:40:24;;;;;;;13.95;6.57;;;0.30;91.60;;;;;;5021445;28;20524;-65
2021/03/09 07:42:50;;;;;;;11.40;6.53;;;0.40;91.80;;;;;;4991386;28;20113;-66
2021/03/09 07:45:17;;;;;;;15.38;7.55;;;0.40;91.70;;;;;;5019829;28;20589;-66
2021/03/09 07:48:01;;;;;;;16.80;7.55;;;0.50;91.60;;;;;;5017127;28;20034;-65
2021/03/09 07:50:40;;;;;;;15.82;6.80;;;0.60;91.60;;;;;;5042581;28;20032;-66
2021/03/09 07:53:08;;;;;;;11.85;6.40;;;0.50;91.40;;;;;;5021315;28;20033;-65
2021/03/09 07:55:36;;;;;;;13.93;6.80;;;0.50;91.40;;;;;;5039153;28;20033;-65
2021/03/09 07:58:16;;;;;;;12.43;6.97;;;0.30;91.50;;;;;;5012763;28;20517;-66
2021/03/09 08:00:49;;;;;;;11.73;7.03;;;0.40;91.60;;;;;;5022627;28;20034;-65
2021/03/09 08:03:26;;;;;;;12.30;7.32;;;0.40;91.70;;;;;;5004942;28;20075;-66
2021/03/09 08:05:56;;;;;;;11.57;6.80;;;0.50;91.70;;;;;;5028203;28;20014;-67
2021/03/09 08:08:51;;;;;;;14.30;7.77;;;0.50;91.70;;;;;;5024818;28;20022;-67
2021/03/09 08:11:20;;;;;;;14.70;7.47;;;0.50;91.70;;;;;;5003745;28;20058;-63
2021/03/09 08:13:48;;;;;;;12.93;7.10;;;0.50;92.00;;;;;;5036449;28;20057;-66
2021/03/09 08:16:19;;;;;;;15.23;8.18;;;0.50;91.90;;;;;;5022202;28;20041;-65
2021/03/09 08:18:49;;;;;;;15.38;7.93;;;0.50;91.80;;;;;;5020087;28;20460;-65
2021/03/09 08:21:15;;;;;;;13.32;7.30;;;0.50;91.60;;;;;;5004109;28;20018;-65
2021/03/09 08:23:41;;;;;;;15.68;8.48;;;0.50;91.80;;;;;;5030818;28;20030;-67
2021/03/09 08:26:22;;;;;;;14.10;7.95;;;0.50;92.00;;;;;;5028509;28;20036;-65
2021/03/09 08:28:49;;;;;;;16.63;8.73;;;0.50;91.90;;;;;;5016895;28;20433;-64
2021/03/09 08:31:26;;;;;;;14.27;8.20;;;0.50;92.10;;;;;;5016763;28;20395;-66
2021/03/09 08:33:52;;;;;;;16.67;9.15;;;0.50;91.80;;;;;;5010342;28;20490;-66
2021/03/09 08:36:24;;;;;;;18.08;9.43;;;0.60;92.00;;;;;;5007946;28;20026;-65
2021/03/09 08:39:05;;;;;;;15.93;8.27;;;0.50;91.70;;;;;;5031491;28;20021;-67
2021/03/09 08:41:41;;;;;;;;;;;0.50;91.90;;;;;;5022357;28;20086;-66
2021/03/09 08:44:15;;;;;;;14.38;8.57;;;0.60;92.10;;;;;;5022728;28;20301;-66
2021/03/09 08:47:03;;;;;;;16.35;9.10;;;0.70;92.10;;;;;;5014891;28;20037;-67
2021/03/09 08:52:04;;;;;;;17.65;9.85;;;0.80;91.80;;;;;;5027848;28;20037;-67
2021/03/09 08:54:41;;;;;;;15.93;9.07;;;0.70;91.80;;;;;;5013118;28;20067;-67
2021/03/09 08:57:18;;;;;;;14.65;8.85;;;0.70;91.90;;;;;;5032703;28;20029;-68
2021/03/09 08:59:49;;;;;;;16.30;9.23;;;0.70;91.70;;;;;;5018339;28;20022;-67
2021/03/09 09:02:22;;;;;;;15.93;9.15;;;0.80;91.90;;;;;;5018532;28;20045;-66
2021/03/09 09:04:55;;;;;;;21.90;9.60;;;0.70;91.70;;;;;;5033942;28;20045;-67
2021/03/09 09:07:35;;;;;;;21.02;10.45;;;0.80;91.80;;;;;;5024167;28;20029;-66
2021/03/09 09:10:06;;;;;;;15.57;9.57;;;0.80;91.90;;;;;;5020334;28;20037;-66
2021/03/09 09:12:34;;;;;;;16.52;9.40;;;0.80;92.00;;;;;;5022185;28;20589;-67
2021/03/09 09:15:09;;;;;;;19.85;10.93;;;0.80;91.80;;;;;;5022453;28;20036;-67
2021/03/09 09:17:39;;;;;;;21.65;10.98;;;0.80;92.00;;;;;;5017847;28;20036;-65
2021/03/09 09:20:30;;;;;;;21.17;11.27;;;0.90;92.10;;;;;;5007981;28;20022;-66
2021/03/09 09:23:03;;;;;;;16.83;10.20;;;0.90;91.80;;;;;;5009483;28;20540;-66
2021/03/09 09:25:34;;;;;;;18.67;10.13;;;0.90;92.00;;;;;;5020636;28;20064;-67
2021/03/09 09:27:59;;;;;;;16.75;10.32;;;0.90;92.00;;;;;;5013808;28;20125;-67
2021/03/09 09:30:39;;;;;;;22.05;11.10;;;1.00;92.00;;;;;;5014804;28;20048;-66
2021/03/09 09:33:05;;;;;;;22.33;10.60;;;1.00;92.00;;;;;;5003401;28;20021;-65
2021/03/09 09:35:32;;;;;;;17.10;9.57;;;0.90;91.90;;;;;;5027323;28;20128;-66
2021/03/09 09:37:59;;;;;;;16.20;10.30;;;0.90;91.90;;;;;;5020135;28;20029;-66
2021/03/09 09:40:37;;;;;;;22.85;11.48;;;0.90;92.10;;;;;;5023704;28;20033;-65
2021/03/09 09:43:17;;;;;;;23.00;11.85;;;1.00;92.00;;;;;;5020500;28;20429;-64
2021/03/09 09:45:44;;;;;;;19.33;11.20;;;1.10;92.00;;;;;;5004676;28;20112;-65
2021/03/09 09:48:13;;;;;;;18.58;10.70;;;1.10;91.90;;;;;;5023718;28;20032;-66
2021/03/09 09:50:48;;;;;;;17.98;10.63;;;1.00;91.70;;;;;;5022900;28;20249;-65
2021/03/09 09:53:28;;;;;;;19.60;10.63;;;1.10;91.70;;;;;;5020073;28;20041;-66
2021/03/09 09:55:55;;;;;;;14.63;8.85;;;1.10;91.50;;;;;;5020052;28;20038;-65
2021/03/09 09:58:21;;;;;;;19.15;10.60;;;1.10;91.50;;;;;;5015488;28;20087;-66
2021/03/09 10:00:54;;;;;;;22.63;11.32;;;1.10;91.60;;;;;;5032616;28;20030;-65
2021/03/09 10:03:21;;;;;;;21.17;10.95;;;1.10;91.60;;;;;;5008080;28;20453;-66
2021/03/09 10:05:47;;;;;;;20.33;11.20;;;1.10;91.50;;;;;;5026822;28;20061;-66
2021/03/09 10:08:32;;;;;;;17.08;9.88;;;1.20;91.60;;;;;;5020577;28;20068;-67
2021/03/09 10:11:00;;;;;;;18.80;9.90;;;1.20;91.50;;;;;;5017841;28;20414;-65
2021/03/09 10:13:26;;;;;;;17.35;10.77;;;1.20;91.40;;;;;;5035925;28;20371;-67
2021/03/09 10:15:52;;;;;;;20.30;10.77;;;1.30;91.30;;;;;;5024917;28;20034;-66
2021/03/09 10:18:32;;;;;;;19.15;10.45;;;1.30;91.30;;;;;;5021285;28;20497;-66
2021/03/09 10:21:12;;;;;;;16.23;10.45;;;1.40;91.40;;;;;;5023020;28;20108;-66
2021/03/09 10:23:53;;;;;;;19.70;10.60;;;1.50;91.20;;;;;;5005528;28;20108;-66
2021/03/09 10:26:31;;;;;;;19.38;10.40;;;1.50;90.90;;;;;;4994665;28;20030;-66
2021/03/09 10:29:11;;;;;;;16.95;9.77;;;1.50;90.90;;;;;;5008858;28;20498;-67
2021/03/09 10:31:42;;;;;;;20.77;9.93;;;1.50;90.90;;;;;;4996959;28;20073;-67
2021/03/09 10:34:08;;;;;;;;;;;1.50;90.80;;;;;;4999014;28;20033;-68
2021/03/09 10:37:01;;;;;;;18.02;10.30;;;1.50;91.00;;;;;;5033784;28;20412;-67
2021/03/09 10:39:28;;;;;;;15.68;9.43;;;1.50;91.00;;;;;;4996492;28;20037;-67
2021/03/09 10:41:54;;;;;;;17.13;9.93;;;1.40;90.90;;;;;;5029562;28;20236;-67
2021/03/09 10:44:46;;;;;;;19.08;9.68;;;1.40;91.00;;;;;;5020245;28;20095;-67
2021/03/09 10:47:12;;;;;;;16.63;8.38;;;1.40;91.10;;;;;;5020880;28;20035;-67
2021/03/09 10:49:38;;;;;;;17.63;10.05;;;1.50;91.00;;;;;;5020050;28;20494;-67
2021/03/09 10:52:05;;;;;;;16.42;9.95;;;1.50;90.80;;;;;;5016985;28;20061;-65
2021/03/09 10:54:32;;;;;;;15.68;8.65;;;1.50;90.90;;;;;;5028883;28;20065;-68
2021/03/09 10:56:57;;;;;;;19.88;9.48;;;1.50;90.80;;;;;;5019440;28;20048;-68
2021/03/09 10:59:24;;;;;;;17.58;9.00;;;1.60;90.70;;;;;;4996302;28;20250;-67
2021/03/09 11:01:50;;;;;;;17.98;9.30;;;1.50;90.60;;;;;;5031527;28;20045;-67
2021/03/09 11:04:15;;;;;;;21.60;9.55;;;1.60;90.60;;;;;;5037956;28;20475;-67
2021/03/09 11:06:41;;;;;;;18.73;9.43;;;1.60;90.50;;;;;;5028591;28;20029;-68
2021/03/09 11:09:07;;;;;;;18.08;8.45;;;1.60;90.60;;;;;;5021390;28;20036;-69
2021/03/09 11:11:33;;;;;;;17.70;8.70;;;1.60;90.40;;;;;;5011649;28;20037;-68
2021/03/09 11:13:59;;;;;;;15.98;8.75;;;1.60;90.30;;;;;;5006533;28;20025;-68
2021/03/09 11:16:24;;;;;;;16.48;9.18;;;1.70;90.40;;;;;;5015262;28;20494;-68
2021/03/09 11:18:50;;;;;;;14.77;8.85;;;1.50;90.10;;;;;;5010940;28;20041;-67
2021/03/09 11:21:16;;;;;;;16.00;8.30;;;1.70;90.60;;;;;;5010784;28;20099;-67
2021/03/09 11:23:44;;;;;;;14.70;8.38;;;1.70;90.60;;;;;;5002997;28;20030;-69
2021/03/09 11:26:09;;;;;;;15.00;8.63;;;1.70;90.50;;;;;;5011012;28;20539;-68
2021/03/09 11:28:35;;;;;;;16.85;8.63;;;1.60;90.50;;;;;;5027294;28;20112;-69
2021/03/09 11:31:01;;;;;;;13.25;8.23;;;1.70;90.70;;;;;;5029037;28;20418;-67
2021/03/09 11:33:27;;;;;;;14.00;9.18;;;1.60;90.40;;;;;;5005415;28;20033;-68
2021/03/09 11:35:53;;;;;;;14.35;8.75;;;1.60;90.50;;;;;;5023248;28;20455;-70
2021/03/09 11:38:20;;;;;;;14.77;8.88;;;1.70;90.70;;;;;;5014547;28;20041;-69
2021/03/09 11:40:46;;;;;;;15.25;8.68;;;1.60;90.60;;;;;;5022065;28;20413;-68
2021/03/09 11:43:11;;;;;;;13.68;8.85;;;1.70;90.60;;;;;;5023127;28;20036;-67
2021/03/09 11:45:37;;;;;;;18.92;8.90;;;1.70;90.60;;;;;;5017093;28;20021;-69
2021/03/09 11:48:03;;;;;;;13.85;8.75;;;1.70;90.40;;;;;;5020468;28;20083;-68
2021/03/09 11:50:29;;;;;;;18.42;8.85;;;1.70;90.60;;;;;;5024391;28;20029;-67
2021/03/09 11:52:54;;;;;;;17.30;8.48;;;1.80;90.90;;;;;;5010206;28;20026;-68
2021/03/09 11:55:20;;;;;;;14.32;8.65;;;1.80;90.50;;;;;;5040766;28;20056;-68
2021/03/09 11:57:46;;;;;;;13.80;8.90;;;1.80;90.60;;;;;;5016807;28;20038;-67
2021/03/09 12:00:12;;;;;;;12.68;7.93;;;1.90;90.50;;;;;;5007080;28;20421;-68
2021/03/09 12:02:37;;;;;;;14.32;8.27;;;1.90;90.40;;;;;;5020832;28;20041;-67
2021/03/09 12:05:07;;;;;;;14.07;8.43;;;2.00;90.10;;;;;;5025608;28;20029;-67
2021/03/09 12:07:33;;;;;;;19.73;8.68;;;2.00;90.00;;;;;;5028118;28;20116;-68
2021/03/09 12:09:58;;;;;;;15.55;8.60;;;1.90;90.10;;;;;;5003920;28;20065;-68
2021/03/09 12:12:24;;;;;;;15.57;9.23;;;1.90;90.10;;;;;;5010701;28;20401;-67
2021/03/09 12:14:50;;;;;;;19.13;9.60;;;2.00;90.30;;;;;;5026542;28;20034;-66
2021/03/09 12:17:15;;;;;;;17.40;8.65;;;2.00;90.30;;;;;;5023390;28;20033;-69
2021/03/09 12:19:41;;;;;;;15.75;9.45;;;2.00;90.20;;;;;;5035055;28;20026;-67
2021/03/09 12:22:07;;;;;;;20.55;8.75;;;1.90;90.30;;;;;;5023774;28;20049;-67
2021/03/09 12:24:33;;;;;;;20.60;9.38;;;1.90;90.40;;;;;;5023164;28;20072;-68
2021/03/09 12:27:00;;;;;;;16.92;9.82;;;2.10;90.60;;;;;;5035084;28;20116;-67
2021/03/09 12:29:26;;;;;;;16.63;9.05;;;2.00;90.20;;;;;;5025541;28;20086;-67
2021/03/09 12:31:52;;;;;;;17.60;8.88;;;2.00;90.60;;;;;;5028040;28;20079;-69
2021/03/09 12:34:18;;;;;;;16.30;9.52;;;1.80;90.30;;;;;;5022477;28;20832;-67
2021/03/09 12:36:43;;;;;;;14.13;8.82;;;1.80;90.40;;;;;;5027900;28;20025;-67
2021/03/09 12:39:09;;;;;;;14.95;9.55;;;1.90;90.60;;;;;;5006989;28;20030;-67
2021/03/09 12:41:34;;;;;;;16.02;9.88;;;1.90;90.50;;;;;;4993497;28;20144;-68
2021/03/09 12:44:00;;;;;;;19.65;10.85;;;1.90;90.90;;;;;;5006837;28;20030;-67
2021/03/09 12:46:26;;;;;;;18.90;10.32;;;1.90;90.80;;;;;;4999473;28;20029;-68
2021/03/09 12:48:51;;;;;;;15.63;9.85;;;1.90;90.70;;;;;;5001880;28;20049;-68
2021/03/09 12:51:17;;;;;;;16.80;9.70;;;1.80;90.80;;;;;;5015110;28;20021;-67
2021/03/09 12:53:43;;;;;;;19.23;10.85;;;1.80;91.20;;;;;;5015878;28;20054;-67
2021/03/09 12:56:08;;;;;;;18.77;9.70;;;1.80;91.30;;;;;;5019089;28;20034;-68
2021/03/09 12:58:35;;;;;;;16.95;10.60;;;1.80;91.50;;;;;;5001238;28;20415;-67
2021/03/09 13:01:01;;;;;;;20.63;10.55;;;1.70;91.20;;;;;;5016845;28;20112;-68
2021/03/09 13:03:26;;;;;;;17.63;10.68;;;1.70;91.40;;;;;;4997974;28;20032;-69